createdAt,value
2023-01-15T00:01:53.254Z,92984.75
2023-01-15T00:04:19.866Z,92975.69
2023-01-15T00:06:46.553Z,92975.81
2023-01-15T00:09:16.675Z,92970.06
2023-01-15T00:11:43.549Z,92976.69
2023-01-15T00:14:10.555Z,92960.91
2023-01-15T00:16:37.269Z,92960.06
2023-01-15T00:19:04.755Z,92966.97
2023-01-15T00:21:32.017Z,92964.50
2023-01-15T00:24:17.647Z,92957.25
2023-01-15T00:27:03.174Z,92938.91
2023-01-15T00:29:31.984Z,92939.34
2023-01-15T00:32:01.888Z,92941.59
2023-01-15T00:34:29.882Z,92939.63
2023-01-15T00:36:56.961Z,92939.00
2023-01-15T00:39:26.863Z,92928.56
2023-01-15T00:41:54.714Z,92941.16
2023-01-15T00:44:21.732Z,92935.53
2023-01-15T00:46:48.486Z,92934.94
2023-01-15T00:49:15.235Z,92934.47
2023-01-15T00:51:41.902Z,92929.78
2023-01-15T00:54:08.537Z,92912.00
2023-01-15T00:56:35.264Z,92900.28
2023-01-15T00:59:04.225Z,92909.63
2023-01-15T01:01:31.214Z,92916.25
2023-01-15T01:03:57.917Z,92912.13
2023-01-15T01:06:24.917Z,92914.50
2023-01-15T01:08:51.505Z,92915.84
2023-01-15T01:11:23.851Z,92923.97
2023-01-15T01:13:50.558Z,92921.72
2023-01-15T01:16:33.683Z,92916.81
2023-01-15T01:19:03.585Z,92916.53
2023-01-15T01:21:30.594Z,92914.44
2023-01-15T01:24:01.205Z,92922.69
2023-01-15T01:26:29.003Z,92925.84
2023-01-15T01:28:56.480Z,92907.44
2023-01-15T01:31:24.297Z,92910.25
2023-01-15T01:33:54.834Z,92927.44
2023-01-15T01:36:27.324Z,92919.31
2023-01-15T01:38:53.973Z,92895.41
2023-01-15T01:41:20.635Z,92904.44
2023-01-15T01:44:01.779Z,92899.81
2023-01-15T01:46:30.860Z,92894.34
2023-01-15T01:49:06.393Z,92888.25
2023-01-15T01:51:38.321Z,92897.16
2023-01-15T01:54:06.234Z,92891.84
2023-01-15T01:56:35.781Z,92892.31
2023-01-15T01:59:04.585Z,92878.13
2023-01-15T02:01:31.555Z,92890.56
2023-01-15T02:03:58.445Z,92870.72
2023-01-15T02:06:27.068Z,92895.13
2023-01-15T02:08:53.938Z,92870.13
2023-01-15T02:11:23.819Z,92872.59
2023-01-15T02:13:58.649Z,92861.19
2023-01-15T02:16:47.830Z,92859.63
2023-01-15T02:19:52.004Z,92850.69
2023-01-15T02:22:40.558Z,92854.44
2023-01-15T02:25:33.754Z,92852.94
2023-01-15T02:28:18.188Z,92843.59
2023-01-15T02:30:49.104Z,92831.16
2023-01-15T02:33:23.850Z,92829.94
2023-01-15T02:36:00.781Z,92830.75
2023-01-15T02:38:32.482Z,92818.47
2023-01-15T02:41:02.263Z,92826.31
2023-01-15T02:43:34.868Z,92827.69
2023-01-15T02:46:03.716Z,92815.56
2023-01-15T02:48:32.826Z,92805.44
2023-01-15T02:51:07.628Z,92810.78
2023-01-15T02:53:38.501Z,92814.16
2023-01-15T02:56:11.307Z,92810.22
2023-01-15T02:58:41.440Z,92809.09
2023-01-15T03:01:19.456Z,92804.84
2023-01-15T03:04:13.825Z,92811.34
2023-01-15T03:06:52.748Z,92805.47
2023-01-15T03:09:20.170Z,92803.28
2023-01-15T03:11:58.245Z,92789.22
2023-01-15T03:14:49.341Z,92782.72
2023-01-15T03:17:23.405Z,92783.84
2023-01-15T03:19:58.507Z,92774.88
2023-01-15T03:22:36.081Z,92779.94
2023-01-15T03:25:16.084Z,92779.25
2023-01-15T03:27:42.796Z,92791.44
2023-01-15T03:30:18.857Z,92770.78
2023-01-15T03:32:46.104Z,92787.22
2023-01-15T03:35:40.625Z,92785.97
2023-01-15T03:38:07.346Z,92788.72
2023-01-15T03:40:39.482Z,92778.97
2023-01-15T03:43:31.880Z,92786.81
2023-01-15T03:46:04.521Z,92780.31
2023-01-15T03:48:39.776Z,92787.06
2023-01-15T03:51:25.362Z,92791.72
2023-01-15T03:53:57.887Z,92786.97
2023-01-15T03:56:33.236Z,92796.34
2023-01-15T03:59:07.569Z,92780.66
2023-01-15T04:01:38.799Z,92770.59
2023-01-15T04:04:06.351Z,92766.66
2023-01-15T04:06:38.408Z,92778.69
2023-01-15T04:09:08.315Z,92773.59
2023-01-15T04:11:35.027Z,92779.34
2023-01-15T04:14:01.717Z,92775.63
2023-01-15T04:16:30.068Z,92765.72
2023-01-15T04:18:57.123Z,92753.69
2023-01-15T04:21:24.379Z,92749.25
2023-01-15T04:23:51.063Z,92762.16
2023-01-15T04:26:17.913Z,92755.75
2023-01-15T04:28:45.205Z,92765.91
2023-01-15T04:31:11.976Z,92755.06
2023-01-15T04:33:40.051Z,92749.53
2023-01-15T04:36:08.859Z,92742.94
2023-01-15T04:38:37.346Z,92743.72
2023-01-15T04:41:23.599Z,92753.50
2023-01-15T04:44:08.225Z,92737.59
2023-01-15T04:46:35.749Z,92743.63
2023-01-15T04:49:03.593Z,92742.19
2023-01-15T04:51:30.256Z,92728.78
2023-01-15T04:53:57.065Z,92740.03
2023-01-15T04:56:23.964Z,92721.44
2023-01-15T04:58:50.575Z,92716.56
2023-01-15T05:01:19.184Z,92720.59
2023-01-15T05:03:45.946Z,92727.75
2023-01-15T05:06:14.343Z,92721.09
2023-01-15T05:08:41.001Z,92713.09
2023-01-15T05:11:07.926Z,92711.13
2023-01-15T05:13:35.309Z,92729.47
2023-01-15T05:16:12.371Z,92721.72
2023-01-15T05:18:39.422Z,92720.88
2023-01-15T05:21:06.576Z,92723.06
2023-01-15T05:23:33.216Z,92720.06
2023-01-15T05:26:03.397Z,92717.00
2023-01-15T05:28:30.061Z,92705.66
2023-01-15T05:30:56.677Z,92703.69
2023-01-15T05:33:23.293Z,92705.91
2023-01-15T05:35:49.956Z,92727.81
2023-01-15T05:38:16.615Z,92707.34
2023-01-15T05:40:43.334Z,92724.81
2023-01-15T05:43:09.999Z,92717.28
2023-01-15T05:45:36.707Z,92715.97
2023-01-15T05:48:03.509Z,92707.31
2023-01-15T05:50:30.132Z,92717.28
2023-01-15T05:52:56.777Z,92714.34
2023-01-15T05:55:23.424Z,92718.91
2023-01-15T05:57:50.016Z,92713.88
2023-01-15T06:00:17.219Z,92722.69
2023-01-15T06:02:43.886Z,92706.88
2023-01-15T06:05:10.630Z,92704.75
2023-01-15T06:07:37.274Z,92707.03
2023-01-15T06:10:04.242Z,92706.63
2023-01-15T06:12:32.643Z,92710.75
2023-01-15T06:14:59.253Z,92703.75
2023-01-15T06:17:25.920Z,92709.84
2023-01-15T06:19:52.516Z,92716.00
2023-01-15T06:22:19.157Z,92716.91
2023-01-15T06:24:45.840Z,92716.91
2023-01-15T06:27:12.494Z,92716.56
2023-01-15T06:29:39.182Z,92729.44
2023-01-15T06:32:05.999Z,92710.47
2023-01-15T06:34:32.658Z,92720.56
2023-01-15T06:36:59.308Z,92715.00
2023-01-15T06:39:25.939Z,92714.41
2023-01-15T06:42:10.754Z,92713.91
2023-01-15T06:44:56.037Z,92710.19
2023-01-15T06:47:23.829Z,92715.31
2023-01-15T06:49:56.193Z,92709.09
2023-01-15T06:52:24.578Z,92699.34
2023-01-15T06:54:51.657Z,92703.28
2023-01-15T06:57:20.869Z,92708.38
2023-01-15T06:59:48.955Z,92703.22
2023-01-15T07:02:15.829Z,92703.28
2023-01-15T07:04:42.402Z,92704.56
2023-01-15T07:07:09.028Z,92703.28
2023-01-15T07:09:35.778Z,92699.28
2023-01-15T07:12:02.434Z,92706.72
2023-01-15T07:14:29.192Z,92697.63
2023-01-15T07:16:56.051Z,92706.94
2023-01-15T07:19:22.943Z,92686.50
2023-01-15T07:21:49.857Z,92691.03
2023-01-15T07:24:17.499Z,92699.56
2023-01-15T07:26:45.497Z,92711.16
2023-01-15T07:29:12.862Z,92716.63
2023-01-15T07:31:40.751Z,92712.84
2023-01-15T07:34:07.488Z,92721.50
2023-01-15T07:36:34.244Z,92721.94
2023-01-15T07:39:00.876Z,92711.50
2023-01-15T07:41:47.396Z,92711.28
2023-01-15T07:44:32.738Z,92728.50
2023-01-15T07:47:17.953Z,92725.09
2023-01-15T07:49:51.192Z,92717.31
2023-01-15T07:52:20.139Z,92713.81
2023-01-15T07:54:48.534Z,92728.38
2023-01-15T07:57:18.896Z,92728.88
2023-01-15T07:59:45.606Z,92734.38
2023-01-15T08:02:13.140Z,92751.84
2023-01-15T08:04:40.581Z,92756.19
2023-01-15T08:07:08.143Z,92771.72
2023-01-15T08:09:35.829Z,92790.53
2023-01-15T08:12:22.606Z,92816.09
2023-01-15T08:15:08.497Z,92828.47
2023-01-15T08:17:36.922Z,92843.66
2023-01-15T08:20:06.026Z,92860.91
2023-01-15T08:22:33.033Z,92874.03
2023-01-15T08:24:59.717Z,92897.03
2023-01-15T08:27:26.990Z,92900.63
2023-01-15T08:29:53.669Z,92904.41
2023-01-15T08:32:20.416Z,92918.44
2023-01-15T08:34:47.081Z,92918.19
2023-01-15T08:37:13.781Z,92926.81
2023-01-15T08:39:40.562Z,92918.94
2023-01-15T08:42:07.287Z,92912.13
2023-01-15T08:44:34.110Z,92938.22
2023-01-15T08:47:00.862Z,92935.81
2023-01-15T08:49:27.660Z,92951.75
2023-01-15T08:51:54.369Z,92955.19
2023-01-15T08:54:24.827Z,92953.22
2023-01-15T08:56:51.612Z,92944.50
2023-01-15T08:59:18.768Z,92953.84
2023-01-15T09:01:45.497Z,92946.47
2023-01-15T09:04:17.376Z,92942.25
2023-01-15T09:06:44.755Z,92949.25
2023-01-15T09:09:12.814Z,92956.63
2023-01-15T09:11:41.599Z,92976.38
2023-01-15T09:14:09.541Z,92984.56
2023-01-15T09:16:57.778Z,92976.75
2023-01-15T09:19:24.448Z,92989.97
2023-01-15T09:21:51.190Z,93007.78
2023-01-15T09:24:17.868Z,93018.13
2023-01-15T09:26:44.610Z,93019.03
2023-01-15T09:29:11.364Z,93027.91
2023-01-15T09:31:38.095Z,93021.72
2023-01-15T09:34:04.768Z,93013.88
2023-01-15T09:36:33.820Z,93009.25
2023-01-15T09:39:01.477Z,93007.00
2023-01-15T09:42:06.737Z,93012.41
2023-01-15T09:44:54.933Z,93025.56
2023-01-15T09:47:26.502Z,93009.31
2023-01-15T09:49:55.951Z,93024.69
2023-01-15T09:52:41.672Z,93032.84
2023-01-15T09:55:22.552Z,93047.31
2023-01-15T09:57:55.597Z,93051.50
2023-01-15T10:00:24.659Z,93060.00
2023-01-15T10:03:29.362Z,93057.31
2023-01-15T10:06:13.087Z,93045.78
2023-01-15T10:08:45.641Z,93048.44
2023-01-15T10:12:09.325Z,93063.59
2023-01-15T10:14:45.255Z,93076.34
2023-01-15T10:17:20.976Z,93066.28
2023-01-15T10:19:47.994Z,93064.31
2023-01-15T10:22:47.087Z,93065.47
2023-01-15T10:25:17.117Z,93065.06
2023-01-15T10:27:50.667Z,93067.44
2023-01-15T10:30:23.058Z,93071.22
2023-01-15T10:33:02.864Z,93063.06
2023-01-15T10:35:58.820Z,93066.63
2023-01-15T10:38:40.484Z,93067.81
2023-01-15T10:41:24.882Z,93073.66
2023-01-15T10:44:06.774Z,93077.53
2023-01-15T10:46:38.412Z,93081.00
2023-01-15T10:49:19.213Z,93094.97
2023-01-15T10:52:07.825Z,93101.53
2023-01-15T10:54:42.365Z,93107.31
2023-01-15T10:57:14.049Z,93105.41
2023-01-15T11:00:13.154Z,93108.50
2023-01-15T11:02:42.419Z,93105.41
2023-01-15T11:05:16.623Z,93108.44
2023-01-15T11:08:14.097Z,93107.69
2023-01-15T11:10:36.817Z,93113.91
2023-01-15T11:13:48.564Z,93115.09
2023-01-15T11:16:36.128Z,93136.38
2023-01-15T11:19:34.948Z,93135.63
2023-01-15T11:22:08.931Z,93139.41
2023-01-15T11:24:48.309Z,93144.47
2023-01-15T11:27:18.219Z,93139.84
2023-01-15T11:29:46.515Z,93149.41
2023-01-15T11:32:39.451Z,93157.63
2023-01-15T11:35:09.236Z,93153.28
2023-01-15T11:37:35.894Z,93163.38
2023-01-15T11:40:07.978Z,93161.00
2023-01-15T11:42:57.189Z,93164.56
2023-01-15T11:45:43.202Z,93171.84
2023-01-15T11:48:39.800Z,93178.44
2023-01-15T11:51:10.403Z,93191.66
2023-01-15T11:53:55.946Z,93200.50
2023-01-15T11:56:26.120Z,93201.59
2023-01-15T11:58:57.425Z,93208.28
2023-01-15T12:01:37.643Z,93216.41
2023-01-15T12:04:26.831Z,93212.81
2023-01-15T12:06:54.071Z,93211.34
2023-01-15T12:09:40.262Z,93215.94
2023-01-15T12:12:24.348Z,93228.59
2023-01-15T12:15:27.242Z,93223.59
2023-01-15T12:18:02.924Z,93230.22
2023-01-15T12:20:59.831Z,93218.91
2023-01-15T12:23:44.510Z,93235.56
2023-01-15T12:26:48.845Z,93242.13
2023-01-15T12:29:30.518Z,93248.28
2023-01-15T12:32:01.930Z,93260.66
2023-01-15T12:34:43.757Z,93254.56
2023-01-15T12:37:21.091Z,93258.47
2023-01-15T12:39:52.017Z,93237.16
2023-01-15T12:42:40.890Z,93240.53
2023-01-15T12:45:12.500Z,93227.78
2023-01-15T12:47:43.138Z,93232.34
2023-01-15T12:50:31.674Z,93231.03
2023-01-15T12:53:23.056Z,93226.81
2023-01-15T12:56:01.646Z,93235.03
2023-01-15T12:58:42.344Z,93250.88
2023-01-15T13:01:27.571Z,93271.34
2023-01-15T13:04:17.580Z,93269.44
2023-01-15T13:06:53.951Z,93274.84
2023-01-15T13:09:44.866Z,93271.41
2023-01-15T13:12:15.455Z,93276.72
2023-01-15T13:14:46.232Z,93275.16
2023-01-15T13:17:54.240Z,93271.25
2023-01-15T13:20:28.009Z,93279.41
2023-01-15T13:23:09.354Z,93293.72
2023-01-15T13:25:56.474Z,93295.66
2023-01-15T13:28:23.155Z,93298.66
2023-01-15T13:31:13.198Z,93304.84
2023-01-15T13:33:50.368Z,93302.84
2023-01-15T13:36:29.256Z,93310.28
2023-01-15T13:38:59.699Z,93312.66
2023-01-15T13:41:47.992Z,93316.75
2023-01-15T13:44:29.058Z,93316.00
2023-01-15T13:47:03.573Z,93324.31
2023-01-15T13:49:37.529Z,93326.50
2023-01-15T13:52:06.463Z,93334.97
2023-01-15T13:54:41.176Z,93324.53
2023-01-15T13:57:09.991Z,93325.25
2023-01-15T13:59:43.937Z,93328.47
2023-01-15T14:02:37.122Z,93339.25
2023-01-15T14:05:22.744Z,93346.22
2023-01-15T14:07:49.918Z,93351.88
2023-01-15T14:10:22.161Z,93349.63
2023-01-15T14:12:48.718Z,93348.09
2023-01-15T14:15:17.939Z,93346.28
2023-01-15T14:18:03.144Z,93353.66
2023-01-15T14:20:48.089Z,93347.41
2023-01-15T14:23:53.325Z,93335.31
2023-01-15T14:26:50.257Z,93345.53
2023-01-15T14:29:41.443Z,93349.59
2023-01-15T14:32:35.749Z,93364.84
2023-01-15T14:35:03.287Z,93347.94
2023-01-15T14:37:37.016Z,93344.50
2023-01-15T14:40:05.835Z,93354.75
2023-01-15T14:42:50.935Z,93350.06
2023-01-15T14:45:25.924Z,93339.72
2023-01-15T14:48:01.873Z,93355.72
2023-01-15T14:50:38.245Z,93360.63
2023-01-15T14:53:10.968Z,93357.09
2023-01-15T14:55:50.416Z,93363.19
2023-01-15T14:58:31.626Z,93360.31
2023-01-15T15:01:30.446Z,93355.66
2023-01-15T15:04:23.155Z,93359.72
2023-01-15T15:06:56.761Z,93356.97
2023-01-15T15:09:34.667Z,93361.25
2023-01-15T15:12:19.283Z,93364.41
2023-01-15T15:14:53.562Z,93361.56
2023-01-15T15:17:30.853Z,93355.66
2023-01-15T15:20:07.790Z,93363.00
2023-01-15T15:22:38.517Z,93354.69
2023-01-15T15:25:12.859Z,93365.59
2023-01-15T15:27:39.621Z,93370.28
2023-01-15T15:30:08.192Z,93363.25
2023-01-15T15:32:40.282Z,93354.56
2023-01-15T15:35:30.499Z,93351.72
2023-01-15T15:38:03.416Z,93358.63
2023-01-15T15:40:36.221Z,93353.94
2023-01-15T15:43:43.753Z,93365.84
2023-01-15T15:46:42.553Z,93361.19
2023-01-15T15:49:09.975Z,93367.38
2023-01-15T15:51:39.861Z,93375.88
2023-01-15T15:54:17.308Z,93370.97
2023-01-15T15:57:03.767Z,93360.88
2023-01-15T15:59:38.900Z,93353.34
2023-01-15T16:02:15.747Z,93365.38
2023-01-15T16:04:56.346Z,93366.03
2023-01-15T16:07:29.657Z,93364.06
2023-01-15T16:10:15.500Z,93364.78
2023-01-15T16:12:46.907Z,93358.97
2023-01-15T16:15:23.951Z,93364.84
2023-01-15T16:17:51.497Z,93356.31
2023-01-15T16:20:20.074Z,93370.13
2023-01-15T16:22:58.972Z,93362.34
2023-01-15T16:25:37.428Z,93361.53
2023-01-15T16:28:05.212Z,93362.19
2023-01-15T16:30:33.329Z,93357.59
2023-01-15T16:33:06.576Z,93354.50
2023-01-15T16:35:37.168Z,93354.16
2023-01-15T16:38:05.561Z,93345.38
2023-01-15T16:40:37.266Z,93354.72
2023-01-15T16:43:06.139Z,93350.09
2023-01-15T16:45:34.382Z,93345.22
2023-01-15T16:48:05.294Z,93346.47
2023-01-15T16:50:33.900Z,93344.19
2023-01-15T16:53:02.229Z,93345.06
2023-01-15T16:55:40.325Z,93344.34
2023-01-15T16:58:13.083Z,93337.53
2023-01-15T17:00:45.847Z,93340.03
2023-01-15T17:03:26.385Z,93340.72
2023-01-15T17:06:00.187Z,93335.63
2023-01-15T17:08:42.462Z,93324.13
2023-01-15T17:11:24.917Z,93326.28
2023-01-15T17:13:51.966Z,93330.78
2023-01-15T17:16:22.992Z,93332.16
2023-01-15T17:18:50.866Z,93327.66
2023-01-15T17:21:27.491Z,93319.16
2023-01-15T17:23:55.896Z,93316.94
2023-01-15T17:26:27.587Z,93319.06
2023-01-15T17:28:54.322Z,93320.09
2023-01-15T17:31:28.799Z,93325.47
2023-01-15T17:33:56.759Z,93324.22
2023-01-15T17:36:24.192Z,93326.56
2023-01-15T17:38:51.268Z,93319.97
2023-01-15T17:41:20.099Z,93328.66
2023-01-15T17:43:47.227Z,93327.50
2023-01-15T17:46:14.189Z,93330.19
2023-01-15T17:48:40.952Z,93331.38
2023-01-15T17:51:12.580Z,93331.03
2023-01-15T17:53:39.523Z,93326.63
2023-01-15T17:56:25.542Z,93328.47
2023-01-15T17:59:10.457Z,93325.88
2023-01-15T18:01:59.617Z,93321.75
2023-01-15T18:04:50.837Z,93314.09
2023-01-15T18:07:21.642Z,93315.34
2023-01-15T18:09:50.307Z,93311.28
2023-01-15T18:12:17.272Z,93321.34
2023-01-15T18:14:43.882Z,93320.63
2023-01-15T18:17:11.540Z,93320.63
2023-01-15T18:19:38.242Z,93317.97
2023-01-15T18:22:05.103Z,93317.28
2023-01-15T18:24:32.002Z,93308.69
2023-01-15T18:26:58.694Z,93312.13
2023-01-15T18:29:25.329Z,93309.84
2023-01-15T18:31:52.082Z,93309.66
2023-01-15T18:34:18.690Z,93320.81
2023-01-15T18:36:45.329Z,93322.72
2023-01-15T18:39:13.578Z,93319.66
2023-01-15T18:41:41.819Z,93321.22
2023-01-15T18:44:32.948Z,93302.88
2023-01-15T18:47:02.778Z,93320.84
2023-01-15T18:49:30.568Z,93304.50
2023-01-15T18:52:16.566Z,93302.56
2023-01-15T18:54:43.239Z,93305.84
2023-01-15T18:57:10.017Z,93305.00
2023-01-15T18:59:36.708Z,93305.88
2023-01-15T19:02:04.086Z,93293.19
2023-01-15T19:04:31.035Z,93286.53
2023-01-15T19:06:58.078Z,93290.41
2023-01-15T19:09:24.896Z,93297.53
2023-01-15T19:11:52.816Z,93288.66
2023-01-15T19:14:39.053Z,93284.09
2023-01-15T19:17:24.411Z,93265.78
2023-01-15T19:19:51.165Z,93268.41
2023-01-15T19:22:36.556Z,93268.53
2023-01-15T19:25:03.231Z,93258.22
2023-01-15T19:27:30.000Z,93264.91
2023-01-15T19:29:56.633Z,93261.31
2023-01-15T19:32:23.307Z,93255.50
2023-01-15T19:34:50.526Z,93249.78
2023-01-15T19:37:17.219Z,93246.47
2023-01-15T19:39:44.004Z,93241.75
2023-01-15T19:42:31.815Z,93240.94
2023-01-15T19:45:16.837Z,93240.47
2023-01-15T19:48:02.550Z,93226.59
2023-01-15T19:50:34.305Z,93223.97
2023-01-15T19:53:01.135Z,93231.69
2023-01-15T19:55:30.561Z,93228.56
2023-01-15T19:58:02.789Z,93226.19
2023-01-15T20:00:31.014Z,93223.91
2023-01-15T20:02:58.253Z,93224.38
2023-01-15T20:05:27.372Z,93218.06
2023-01-15T20:07:54.587Z,93217.25
2023-01-15T20:10:23.954Z,93213.00
2023-01-15T20:13:10.108Z,93214.44
2023-01-15T20:15:39.106Z,93209.31
2023-01-15T20:18:06.390Z,93213.00
2023-01-15T20:20:34.375Z,93212.50
2023-01-15T20:23:01.658Z,93202.81
2023-01-15T20:25:29.849Z,93196.25
2023-01-15T20:27:58.691Z,93186.41
2023-01-15T20:30:26.818Z,93182.88
2023-01-15T20:32:55.506Z,93181.69
2023-01-15T20:35:29.223Z,93185.56
2023-01-15T20:37:55.916Z,93169.34
2023-01-15T20:40:24.729Z,93157.41
2023-01-15T20:43:10.905Z,93149.19
2023-01-15T20:45:38.050Z,93149.06
2023-01-15T20:48:11.691Z,93144.31
2023-01-15T20:50:40.987Z,93135.19
2023-01-15T20:53:08.796Z,93133.28
2023-01-15T20:55:54.864Z,93125.91
2023-01-15T20:58:24.172Z,93119.78
2023-01-15T21:00:51.499Z,93120.31
2023-01-15T21:03:18.821Z,93111.75
2023-01-15T21:05:45.611Z,93110.31
2023-01-15T21:08:12.804Z,93113.56
2023-01-15T21:10:40.744Z,93108.09
2023-01-15T21:13:07.447Z,93112.84
2023-01-15T21:15:34.205Z,93106.22
2023-01-15T21:18:00.969Z,93101.84
2023-01-15T21:20:28.024Z,93112.06
2023-01-15T21:22:57.132Z,93111.94
2023-01-15T21:25:23.902Z,93104.16
2023-01-15T21:27:50.660Z,93103.50
2023-01-15T21:30:17.462Z,93099.63
2023-01-15T21:32:46.416Z,93095.75
2023-01-15T21:35:13.175Z,93094.91
2023-01-15T21:37:39.894Z,93087.88
2023-01-15T21:40:07.427Z,93089.72
2023-01-15T21:42:52.700Z,93085.19
2023-01-15T21:45:19.528Z,93073.97
2023-01-15T21:47:46.261Z,93071.13
2023-01-15T21:50:13.155Z,93058.38
2023-01-15T21:52:39.813Z,93061.84
2023-01-15T21:55:07.489Z,93056.00
2023-01-15T21:57:34.213Z,93050.13
2023-01-15T22:00:00.907Z,93052.41
2023-01-15T22:02:29.829Z,93038.06
2023-01-15T22:04:56.518Z,93032.75
2023-01-15T22:07:23.259Z,93039.97
2023-01-15T22:09:50.048Z,93036.88
2023-01-15T22:12:16.853Z,93037.63
2023-01-15T22:14:43.568Z,93032.75
2023-01-15T22:17:11.125Z,93024.91
2023-01-15T22:19:37.802Z,93029.53
2023-01-15T22:22:10.327Z,93021.34
2023-01-15T22:24:39.100Z,93015.34
2023-01-15T22:27:07.876Z,93007.91
2023-01-15T22:29:40.999Z,93003.84
2023-01-15T22:32:09.973Z,93000.44
2023-01-15T22:34:36.729Z,92995.84
2023-01-15T22:37:03.513Z,92999.41
2023-01-15T22:39:30.237Z,92989.44
2023-01-15T22:42:15.527Z,92984.31
2023-01-15T22:44:45.178Z,92983.72
2023-01-15T22:47:12.568Z,92979.44
2023-01-15T22:49:39.263Z,92983.63
2023-01-15T22:52:06.208Z,92967.28
2023-01-15T22:54:32.904Z,92972.25
2023-01-15T22:56:59.580Z,92964.72
2023-01-15T22:59:26.355Z,92960.59
2023-01-15T23:01:53.198Z,92941.41
2023-01-15T23:04:23.751Z,92941.13
2023-01-15T23:06:51.816Z,92941.94
2023-01-15T23:09:21.428Z,92934.25
2023-01-15T23:11:50.157Z,92927.78
2023-01-15T23:14:18.294Z,92920.88
2023-01-15T23:16:45.037Z,92911.22
2023-01-15T23:19:12.310Z,92913.16
2023-01-15T23:21:40.044Z,92910.41
2023-01-15T23:24:07.315Z,92899.59
2023-01-15T23:26:34.703Z,92897.66
2023-01-15T23:29:01.893Z,92885.31
2023-01-15T23:31:29.130Z,92889.19
2023-01-15T23:33:56.229Z,92877.22
2023-01-15T23:36:23.210Z,92882.97
2023-01-15T23:38:49.925Z,92884.19
2023-01-15T23:41:40.378Z,92881.91
2023-01-15T23:44:32.250Z,92868.97
2023-01-15T23:46:58.919Z,92875.19
2023-01-15T23:49:26.010Z,92858.31
2023-01-15T23:51:52.795Z,92858.31
2023-01-15T23:54:19.453Z,92856.84
2023-01-15T23:56:46.300Z,92847.69
2023-01-15T23:59:13.076Z,92845.00
